Chesney Shores, Illinois
Current Conditions -  °F | °C
As of 11:55 AM on Wednesday 26 Nov 2014 (Local Time) from KUGN Reporting Station
Haze Haze  
Wind Chill: 26°   Ceiling: 2500
Heat Index: 26°   Visibility: 4mi
Dew Point: 22°   Wind: 0mph
Humidity: 84%   Direction: NA
Pressure: 30.12"   Gusts: NA
Location:  42.4132°N, 88.0615°W
Report Text: KUGN 261755Z 00000KT 4SM BR OVC025 M03/M06 A3012 RMK AO2 SLP219 T10331056 11033 21089 58007
Loading
Personal Weather Stations






























Interactive Weather Map New forecast layout! Learn more

10-Day Weather Forecast

Advertisements
Track Severe Weather on mobile